createdAt,value
2023-04-12T00:00:29.606Z,0.00
2023-04-12T00:01:29.593Z,0.00
2023-04-12T00:02:29.699Z,0.00
2023-04-12T00:03:29.642Z,0.00
2023-04-12T00:04:29.725Z,0.00
2023-04-12T00:05:29.518Z,0.00
2023-04-12T00:06:29.490Z,0.00
2023-04-12T00:07:29.492Z,0.00
2023-04-12T00:08:29.479Z,0.00
2023-04-12T00:09:29.479Z,0.00
2023-04-12T00:10:29.441Z,0.00
2023-04-12T00:11:29.454Z,0.00
2023-04-12T00:12:29.427Z,0.00
2023-04-12T00:13:29.457Z,0.00
2023-04-12T00:14:29.422Z,0.00
2023-04-12T00:15:29.430Z,0.00
2023-04-12T00:16:29.509Z,0.00
2023-04-12T00:17:29.413Z,0.00
2023-04-12T00:18:29.388Z,0.00
2023-04-12T00:19:29.389Z,0.00
2023-04-12T00:20:29.394Z,0.00
2023-04-12T00:21:29.334Z,0.00
2023-04-12T00:22:29.323Z,0.00
2023-04-12T00:23:29.322Z,0.00
2023-04-12T00:24:29.283Z,0.00
2023-04-12T00:25:29.284Z,0.00
2023-04-12T00:26:29.349Z,0.00
2023-04-12T00:27:29.281Z,0.00
2023-04-12T00:28:29.277Z,0.00
2023-04-12T00:29:29.247Z,0.00
2023-04-12T00:30:29.283Z,0.00
2023-04-12T00:31:29.265Z,0.00
2023-04-12T00:32:29.262Z,0.00
2023-04-12T00:33:29.192Z,0.00
2023-04-12T00:34:29.194Z,0.00
2023-04-12T00:35:29.220Z,0.00
2023-04-12T00:36:29.156Z,0.00
2023-04-12T00:37:29.154Z,0.00
2023-04-12T00:38:29.151Z,0.00
2023-04-12T00:39:29.136Z,0.00
2023-04-12T00:40:29.146Z,0.00
2023-04-12T00:41:29.129Z,0.00
2023-04-12T00:42:29.102Z,0.00
2023-04-12T00:43:29.090Z,0.00
2023-04-12T00:44:29.087Z,0.00
2023-04-12T00:45:29.135Z,0.00
2023-04-12T00:46:29.102Z,0.00
2023-04-12T00:47:29.057Z,0.00
2023-04-12T00:48:29.032Z,0.00
2023-04-12T00:49:29.042Z,0.00
2023-04-12T00:50:29.032Z,0.00
2023-04-12T00:51:29.004Z,0.00
2023-04-12T00:52:28.982Z,0.00
2023-04-12T00:53:28.980Z,0.00
2023-04-12T00:54:29.044Z,0.00
2023-04-12T00:55:28.976Z,0.00
2023-04-12T00:56:28.969Z,0.00
2023-04-12T00:57:28.934Z,0.00
2023-04-12T00:58:28.968Z,0.00
2023-04-12T00:59:29.028Z,0.00
2023-04-12T01:00:28.920Z,0.00
2023-04-12T01:01:28.909Z,0.00
2023-04-12T01:02:29.093Z,0.00
2023-04-12T01:03:29.002Z,0.00
2023-04-12T01:04:28.888Z,0.00
2023-04-12T01:05:28.850Z,0.00
2023-04-12T01:06:28.827Z,0.00
2023-04-12T01:07:28.825Z,0.00
2023-04-12T01:08:28.805Z,0.00
2023-04-12T01:09:28.805Z,0.00
2023-04-12T01:10:28.794Z,0.00
2023-04-12T01:11:28.786Z,0.00
2023-04-12T01:12:28.763Z,0.00
2023-04-12T01:13:28.753Z,0.00
2023-04-12T01:14:28.794Z,0.00
2023-04-12T01:15:28.738Z,0.00
2023-04-12T01:16:28.751Z,0.00
2023-04-12T01:17:28.755Z,0.00
2023-04-12T01:18:28.848Z,0.00
2023-04-12T01:19:28.702Z,0.00
2023-04-12T01:20:28.683Z,0.00
2023-04-12T01:21:28.667Z,0.00
2023-04-12T01:22:28.656Z,0.00
2023-04-12T01:23:28.648Z,0.00
2023-04-12T01:24:28.641Z,0.00
2023-04-12T01:25:28.634Z,0.00
2023-04-12T01:26:28.676Z,0.00
2023-04-12T01:27:28.610Z,0.00
2023-04-12T01:28:28.620Z,0.00
2023-04-12T01:29:28.629Z,0.00
2023-04-12T01:30:28.583Z,0.00
2023-04-12T01:31:28.586Z,0.00
2023-04-12T01:32:28.554Z,0.00
2023-04-12T01:33:28.546Z,0.00
2023-04-12T01:34:28.700Z,0.00
2023-04-12T01:35:28.553Z,0.00
2023-04-12T01:36:28.588Z,0.00
2023-04-12T01:37:28.486Z,0.00
2023-04-12T01:38:28.522Z,0.00
2023-04-12T01:39:28.476Z,0.00
2023-04-12T01:40:28.464Z,0.00
2023-04-12T01:41:28.444Z,0.00
2023-04-12T01:42:28.444Z,0.00
2023-04-12T01:43:28.424Z,0.00
2023-04-12T01:44:28.446Z,0.00
2023-04-12T01:45:28.448Z,0.00
2023-04-12T01:46:28.416Z,0.00
2023-04-12T01:47:28.514Z,0.00
2023-04-12T01:48:28.379Z,0.00
2023-04-12T01:49:28.419Z,0.00
2023-04-12T01:50:28.348Z,0.00
2023-04-12T01:51:28.340Z,0.00
2023-04-12T01:52:28.349Z,0.00
2023-04-12T01:53:28.321Z,0.00
2023-04-12T01:54:28.342Z,0.00
2023-04-12T01:55:28.314Z,0.00
2023-04-12T01:56:28.289Z,0.00
2023-04-12T01:57:28.265Z,0.00
2023-04-12T01:58:28.270Z,0.00
2023-04-12T01:59:28.271Z,0.00
2023-04-12T02:00:28.261Z,0.00
2023-04-12T02:01:28.236Z,0.00
2023-04-12T02:02:28.286Z,0.00
2023-04-12T02:03:28.249Z,0.00
2023-04-12T02:04:28.210Z,0.00
2023-04-12T02:05:28.239Z,0.00
2023-04-12T02:06:28.188Z,0.00
2023-04-12T02:07:28.165Z,0.00
2023-04-12T02:08:28.155Z,0.00
2023-04-12T02:09:28.165Z,0.00
2023-04-12T02:10:28.133Z,0.00
2023-04-12T02:11:28.122Z,0.00
2023-04-12T02:12:28.124Z,0.00
2023-04-12T02:13:28.095Z,0.00
2023-04-12T02:14:28.095Z,0.00
2023-04-12T02:15:28.080Z,0.00
2023-04-12T02:16:28.082Z,0.00
2023-04-12T02:17:28.084Z,0.00
2023-04-12T02:18:28.055Z,0.00
2023-04-12T02:19:28.044Z,0.00
2023-04-12T02:20:28.014Z,0.00
2023-04-12T02:21:28.098Z,0.00
2023-04-12T02:22:28.005Z,0.00
2023-04-12T02:23:28.046Z,0.00
2023-04-12T02:24:27.976Z,0.00
2023-04-12T02:25:27.961Z,0.00
2023-04-12T02:26:27.970Z,0.00
2023-04-12T02:27:27.946Z,0.00
2023-04-12T02:28:27.932Z,0.00
2023-04-12T02:29:27.993Z,0.00
2023-04-12T02:30:27.944Z,0.00
2023-04-12T02:31:27.921Z,0.00
2023-04-12T02:32:27.912Z,0.00
2023-04-12T02:33:27.878Z,0.00
2023-04-12T02:34:27.887Z,0.00
2023-04-12T02:35:27.865Z,0.00
2023-04-12T02:36:27.834Z,0.00
2023-04-12T02:37:27.838Z,0.00
2023-04-12T02:38:27.819Z,0.00
2023-04-12T02:39:27.827Z,0.00
2023-04-12T02:40:27.883Z,0.00
2023-04-12T02:41:27.791Z,0.00
2023-04-12T02:42:27.807Z,0.00
2023-04-12T02:43:27.763Z,0.00
2023-04-12T02:44:27.757Z,0.00
2023-04-12T02:45:27.738Z,0.00
2023-04-12T02:46:27.808Z,0.00
2023-04-12T02:47:27.747Z,0.00
2023-04-12T02:48:27.733Z,0.00
2023-04-12T02:49:27.700Z,0.00
2023-04-12T02:50:27.686Z,0.00
2023-04-12T02:51:27.703Z,0.00
2023-04-12T02:52:27.677Z,0.00
2023-04-12T02:53:27.658Z,0.00
2023-04-12T02:54:27.651Z,0.00
2023-04-12T02:55:27.633Z,0.00
2023-04-12T02:56:27.626Z,0.00
2023-04-12T02:57:27.634Z,0.00
2023-04-12T02:58:27.642Z,0.00
2023-04-12T02:59:27.606Z,0.00
2023-04-12T03:00:27.628Z,0.00
2023-04-12T03:01:27.609Z,0.00
2023-04-12T03:02:27.652Z,0.00
2023-04-12T03:03:27.822Z,0.00
2023-04-12T03:04:27.663Z,0.00
2023-04-12T03:05:27.537Z,0.00
2023-04-12T03:06:27.505Z,0.00
2023-04-12T03:07:27.534Z,0.00
2023-04-12T03:08:27.528Z,0.00
2023-04-12T03:09:27.489Z,0.00
2023-04-12T03:10:27.522Z,0.00
2023-04-12T03:11:27.463Z,0.00
2023-04-12T03:12:27.512Z,0.00
2023-04-12T03:13:27.440Z,0.00
2023-04-12T03:14:27.527Z,0.00
2023-04-12T03:15:27.499Z,0.00
2023-04-12T03:16:27.398Z,0.00
2023-04-12T03:17:27.444Z,0.00
2023-04-12T03:18:27.404Z,0.00
2023-04-12T03:19:27.462Z,0.00
2023-04-12T03:20:27.352Z,0.00
2023-04-12T03:21:27.352Z,0.00
2023-04-12T03:22:27.347Z,0.00
2023-04-12T03:23:27.323Z,0.00
2023-04-12T03:24:27.348Z,0.00
2023-04-12T03:25:27.321Z,0.00
2023-04-12T03:26:27.285Z,0.00
2023-04-12T03:27:27.289Z,0.00
2023-04-12T03:28:27.270Z,0.00
2023-04-12T03:29:27.282Z,0.00
2023-04-12T03:30:27.240Z,0.00
2023-04-12T03:31:27.356Z,0.00
2023-04-12T03:32:27.309Z,0.00
2023-04-12T03:33:27.218Z,0.00
2023-04-12T03:34:27.227Z,0.00
2023-04-12T03:35:27.311Z,0.00
2023-04-12T03:36:27.192Z,0.00
2023-04-12T03:37:27.234Z,0.00
2023-04-12T03:38:27.156Z,0.00
2023-04-12T03:39:27.157Z,0.00
2023-04-12T03:40:27.156Z,0.00
2023-04-12T03:41:27.128Z,0.00
2023-04-12T03:42:32.899Z,0.00
2023-04-12T03:43:28.106Z,0.00
2023-04-12T03:44:27.145Z,0.00
2023-04-12T03:45:27.092Z,0.00
2023-04-12T03:46:27.095Z,0.00
2023-04-12T03:47:27.152Z,0.00
2023-04-12T03:48:27.061Z,0.00
2023-04-12T03:49:27.059Z,0.00
2023-04-12T03:50:27.023Z,0.00
2023-04-12T03:51:27.122Z,0.00
2023-04-12T03:52:27.011Z,0.00
2023-04-12T03:53:27.007Z,0.00
2023-04-12T03:54:26.999Z,0.00
2023-04-12T03:55:26.980Z,0.00
2023-04-12T03:56:26.966Z,0.00
2023-04-12T03:57:27.053Z,0.00
2023-04-12T03:58:26.941Z,0.00
2023-04-12T03:59:26.945Z,0.00
2023-04-12T04:00:26.918Z,0.00
2023-04-12T04:01:26.942Z,0.00
2023-04-12T04:02:26.995Z,0.00
2023-04-12T04:03:27.222Z,0.00
2023-04-12T04:04:27.094Z,0.00
2023-04-12T04:05:26.869Z,0.00
2023-04-12T04:06:26.862Z,0.00
2023-04-12T04:07:26.846Z,0.00
2023-04-12T04:08:26.856Z,0.00
2023-04-12T04:09:26.931Z,0.00
2023-04-12T04:10:26.818Z,0.00
2023-04-12T04:11:26.868Z,0.00
2023-04-12T04:12:26.813Z,0.00
2023-04-12T04:13:26.809Z,0.00
2023-04-12T04:14:26.793Z,0.00
2023-04-12T04:15:26.743Z,0.00
2023-04-12T04:16:26.815Z,0.00
2023-04-12T04:17:26.868Z,4.00
2023-04-12T04:18:26.756Z,4.00
2023-04-12T04:19:26.746Z,4.00
2023-04-12T04:20:27.879Z,4.00
2023-04-12T04:21:26.696Z,0.00
2023-04-12T04:22:26.701Z,4.00
2023-04-12T04:23:26.689Z,4.00
2023-04-12T04:24:26.658Z,4.00
2023-04-12T04:25:26.658Z,8.00
2023-04-12T04:26:26.638Z,8.00
2023-04-12T04:27:26.619Z,12.00
2023-04-12T04:28:26.634Z,12.00
2023-04-12T04:29:26.605Z,16.00
2023-04-12T04:30:26.607Z,16.00
2023-04-12T04:31:26.596Z,20.00
2023-04-12T04:32:26.615Z,24.00
2023-04-12T04:33:26.571Z,24.00
2023-04-12T04:34:26.561Z,28.00
2023-04-12T04:35:26.621Z,32.00
2023-04-12T04:36:26.554Z,36.00
2023-04-12T04:37:26.519Z,44.00
2023-04-12T04:38:26.543Z,48.00
2023-04-12T04:39:26.496Z,56.00
2023-04-12T04:40:26.520Z,64.00
2023-04-12T04:41:26.489Z,72.00
2023-04-12T04:42:26.483Z,84.00
2023-04-12T04:43:26.789Z,92.00
2023-04-12T04:44:26.457Z,104.00
2023-04-12T04:45:26.641Z,108.00
2023-04-12T04:46:26.428Z,128.00
2023-04-12T04:47:26.440Z,136.00
2023-04-12T04:48:26.465Z,140.00
2023-04-12T04:49:26.389Z,136.00
2023-04-12T04:50:26.374Z,148.00
2023-04-12T04:51:26.417Z,164.00
2023-04-12T04:52:26.402Z,168.00
2023-04-12T04:53:26.390Z,172.00
2023-04-12T04:54:26.365Z,176.00
2023-04-12T04:55:26.337Z,188.00
2023-04-12T04:56:26.366Z,200.00
2023-04-12T04:57:26.295Z,200.00
2023-04-12T04:58:26.304Z,204.00
2023-04-12T04:59:26.276Z,204.00
2023-04-12T05:00:26.286Z,204.00
2023-04-12T05:01:26.357Z,220.00
2023-04-12T05:02:26.360Z,220.00
2023-04-12T05:03:28.821Z,220.00
2023-04-12T05:04:26.316Z,220.00
2023-04-12T05:05:26.293Z,224.00
2023-04-12T05:06:26.393Z,236.00
2023-04-12T05:07:30.233Z,240.00
2023-04-12T05:08:26.687Z,252.00
2023-04-12T05:09:27.195Z,280.00
2023-04-12T05:10:26.175Z,312.00
2023-04-12T05:11:26.171Z,352.00
2023-04-12T05:12:26.131Z,376.00
2023-04-12T05:13:26.166Z,408.00
2023-04-12T05:14:37.275Z,420.00
2023-04-12T05:15:27.100Z,424.00
2023-04-12T05:16:26.178Z,444.00
2023-04-12T05:17:26.160Z,452.00
2023-04-12T05:18:26.111Z,468.00
2023-04-12T05:19:26.058Z,476.00
2023-04-12T05:20:26.042Z,488.00
2023-04-12T05:21:26.058Z,512.00
2023-04-12T05:22:26.030Z,544.00
2023-04-12T05:23:26.271Z,568.00
2023-04-12T05:24:26.127Z,580.00
2023-04-12T05:25:26.040Z,592.00
2023-04-12T05:26:26.011Z,600.00
2023-04-12T05:27:25.965Z,612.00
2023-04-12T05:28:25.971Z,644.00
2023-04-12T05:29:25.953Z,672.00
2023-04-12T05:30:25.961Z,692.00
2023-04-12T05:31:25.982Z,708.00
2023-04-12T05:32:25.930Z,720.00
2023-04-12T05:33:25.912Z,720.00
2023-04-12T05:34:25.891Z,724.00
2023-04-12T05:35:25.939Z,748.00
2023-04-12T05:36:26.094Z,780.00
2023-04-12T05:37:26.495Z,824.00
2023-04-12T05:38:25.859Z,876.00
2023-04-12T05:39:25.911Z,928.00
2023-04-12T05:40:25.955Z,960.00
2023-04-12T05:41:25.843Z,976.00
2023-04-12T05:42:25.802Z,1008.00
2023-04-12T05:43:25.829Z,1044.00
2023-04-12T05:44:25.783Z,1092.00
2023-04-12T05:45:25.808Z,1164.00
2023-04-12T05:46:25.851Z,1228.00
2023-04-12T05:47:25.815Z,1276.00
2023-04-12T05:48:25.776Z,1312.00
2023-04-12T05:49:25.749Z,1344.00
2023-04-12T05:50:25.721Z,1372.00
2023-04-12T05:51:37.844Z,1404.00
2023-04-12T05:52:26.696Z,1436.00
2023-04-12T05:53:25.720Z,1472.00
2023-04-12T05:54:25.681Z,1544.00
2023-04-12T05:55:25.699Z,1628.00
2023-04-12T05:56:25.655Z,1708.00
2023-04-12T05:58:36.898Z,1820.00
2023-04-12T05:59:36.834Z,1864.00
2023-04-12T06:00:36.792Z,1924.00
2023-04-12T06:01:36.817Z,1980.00
2023-04-12T06:02:36.874Z,2048.00
2023-04-12T06:03:36.850Z,2116.00
2023-04-12T06:04:49.483Z,2204.00
2023-04-12T06:05:37.847Z,2288.00
2023-04-12T06:06:36.709Z,2376.00
2023-04-12T06:07:36.693Z,2472.00
2023-04-12T06:08:36.749Z,2592.00
2023-04-12T06:09:36.659Z,2696.00
2023-04-12T06:10:36.664Z,2780.00
2023-04-12T06:11:36.644Z,2844.00
2023-04-12T06:12:36.656Z,2864.00
2023-04-12T06:13:36.714Z,2848.00
2023-04-12T06:14:36.675Z,2804.00
2023-04-12T06:15:36.617Z,2736.00
2023-04-12T06:16:36.659Z,2716.00
2023-04-12T06:17:36.696Z,2756.00
2023-04-12T06:18:36.589Z,2824.00
2023-04-12T06:19:36.591Z,2908.00
2023-04-12T06:20:36.576Z,3092.00
2023-04-12T06:21:36.545Z,3276.00
2023-04-12T06:22:36.545Z,3404.00
2023-04-12T06:23:36.693Z,3496.00
2023-04-12T06:24:36.594Z,3512.00
2023-04-12T06:25:36.714Z,3512.00
2023-04-12T06:26:39.761Z,3544.00
2023-04-12T06:27:36.496Z,3636.00
2023-04-12T06:28:36.538Z,3688.00
2023-04-12T06:29:36.461Z,3656.00
2023-04-12T06:30:36.480Z,3636.00
2023-04-12T06:31:36.505Z,3712.00
2023-04-12T06:32:36.529Z,3836.00
2023-04-12T06:33:36.410Z,3936.00
2023-04-12T06:34:36.411Z,3964.00
2023-04-12T06:35:36.418Z,3956.00
2023-04-12T06:36:36.380Z,4016.00
2023-04-12T06:37:36.445Z,4252.00
2023-04-12T06:38:37.179Z,4584.00
2023-04-12T06:39:36.340Z,4956.00
2023-04-12T06:40:36.352Z,5180.00
2023-04-12T06:41:36.320Z,5268.00
2023-04-12T06:42:36.299Z,5176.00
2023-04-12T06:43:36.321Z,5092.00
2023-04-12T06:44:36.282Z,5084.00
2023-04-12T06:45:36.288Z,5216.00
2023-04-12T06:46:36.304Z,5388.00
2023-04-12T06:47:36.288Z,5436.00
2023-04-12T06:48:36.256Z,5408.00
2023-04-12T06:49:36.274Z,5336.00
2023-04-12T06:50:36.218Z,5544.00
2023-04-12T06:51:36.200Z,5772.00
2023-04-12T06:52:36.262Z,5960.00
2023-04-12T06:53:36.191Z,6140.00
2023-04-12T06:54:36.177Z,6288.00
2023-04-12T06:55:36.197Z,6424.00
2023-04-12T06:56:36.210Z,6496.00
2023-04-12T06:57:36.128Z,6264.00
2023-04-12T06:58:36.164Z,5848.00
2023-04-12T06:59:36.105Z,5548.00
2023-04-12T07:00:36.120Z,5264.00
2023-04-12T07:01:36.086Z,5124.00
2023-04-12T07:02:36.235Z,4980.00
2023-04-12T07:03:36.491Z,4856.00
2023-04-12T07:04:36.215Z,5168.00
2023-04-12T07:05:36.086Z,5788.00
2023-04-12T07:06:36.178Z,6340.00
2023-04-12T07:07:36.054Z,6876.00
2023-04-12T07:08:36.102Z,7292.00
2023-04-12T07:09:36.006Z,7760.00
2023-04-12T07:10:36.018Z,8072.00
2023-04-12T07:11:36.141Z,8276.00
2023-04-12T07:12:35.970Z,8556.00
2023-04-12T07:13:36.018Z,9096.00
2023-04-12T07:14:35.955Z,9660.00
2023-04-12T07:15:35.936Z,10240.00
2023-04-12T07:16:36.077Z,10832.00
2023-04-12T07:17:35.938Z,11388.00
2023-04-12T07:18:35.962Z,11512.00
2023-04-12T07:19:35.903Z,10984.00
2023-04-12T07:20:35.881Z,10084.00
2023-04-12T07:21:35.863Z,9140.00
2023-04-12T07:22:35.863Z,8440.00
2023-04-12T07:23:35.870Z,8396.00
2023-04-12T07:24:35.867Z,8980.00
2023-04-12T07:25:35.858Z,9336.00
2023-04-12T07:26:35.846Z,9108.00
2023-04-12T07:27:35.824Z,8624.00
2023-04-12T07:28:35.819Z,8304.00
2023-04-12T07:29:35.789Z,8160.00
2023-04-12T07:30:35.785Z,8012.00
2023-04-12T07:31:35.804Z,7944.00
2023-04-12T07:32:35.859Z,8016.00
2023-04-12T07:33:36.075Z,8332.00
2023-04-12T07:34:35.796Z,8904.00
2023-04-12T07:35:35.776Z,9556.00
2023-04-12T07:36:35.714Z,10252.00
2023-04-12T07:37:35.726Z,10784.00
2023-04-12T07:38:35.730Z,11180.00
2023-04-12T07:39:35.722Z,11628.00
2023-04-12T07:40:35.668Z,12156.00
2023-04-12T07:41:35.655Z,12568.00
2023-04-12T07:42:35.813Z,12960.00
2023-04-12T07:43:35.667Z,13092.00
2023-04-12T07:44:38.500Z,12944.00
2023-04-12T07:45:35.655Z,12800.00
2023-04-12T07:46:35.639Z,12908.00
2023-04-12T07:47:35.642Z,13404.00
2023-04-12T07:48:35.588Z,14200.00
2023-04-12T07:49:35.570Z,15408.00
2023-04-12T07:50:35.560Z,16380.00
2023-04-12T07:51:35.538Z,15132.00
2023-04-12T07:52:35.596Z,13612.00
2023-04-12T07:53:35.534Z,11212.00
2023-04-12T07:54:35.544Z,10336.00
2023-04-12T07:55:35.520Z,9756.00
2023-04-12T07:56:35.515Z,8996.00
2023-04-12T07:57:35.472Z,8156.00
2023-04-12T07:58:35.619Z,7584.00
2023-04-12T07:59:35.462Z,7144.00
2023-04-12T08:00:35.474Z,6772.00
2023-04-12T08:01:35.443Z,6616.00
2023-04-12T08:02:35.568Z,7316.00
2023-04-12T08:03:35.592Z,9040.00
2023-04-12T08:04:35.465Z,10680.00
2023-04-12T08:05:35.456Z,11804.00
2023-04-12T08:06:35.376Z,12336.00
2023-04-12T08:07:35.391Z,12292.00
2023-04-12T08:08:35.368Z,12036.00
2023-04-12T08:09:35.360Z,11400.00
2023-04-12T08:10:35.346Z,10500.00
2023-04-12T08:11:35.361Z,9908.00
2023-04-12T08:12:35.317Z,9668.00
2023-04-12T08:13:35.347Z,9944.00
2023-04-12T08:14:35.339Z,10748.00
2023-04-12T08:15:35.350Z,11380.00
2023-04-12T08:16:35.268Z,11356.00
2023-04-12T08:17:35.283Z,10960.00
2023-04-12T08:18:35.359Z,10548.00
2023-04-12T08:19:35.286Z,10316.00
2023-04-12T08:20:35.301Z,10168.00
2023-04-12T08:21:35.225Z,10068.00
2023-04-12T08:22:35.210Z,10092.00
2023-04-12T08:23:35.210Z,10392.00
2023-04-12T08:24:35.197Z,10996.00
2023-04-12T08:25:35.180Z,11712.00
2023-04-12T08:26:35.179Z,12208.00
2023-04-12T08:27:35.163Z,12324.00
2023-04-12T08:28:36.823Z,12756.00
2023-04-12T08:29:35.146Z,13244.00
2023-04-12T08:30:35.146Z,13812.00
2023-04-12T08:31:35.139Z,14716.00
2023-04-12T08:32:35.153Z,16376.00
2023-04-12T08:33:35.089Z,19328.00
2023-04-12T08:34:35.086Z,22784.00
2023-04-12T08:35:35.110Z,24448.00
2023-04-12T08:36:35.051Z,22656.00
2023-04-12T08:37:35.092Z,20352.00
2023-04-12T08:38:44.875Z,19392.00
2023-04-12T08:39:36.022Z,18368.00
2023-04-12T08:40:35.076Z,16384.00
2023-04-12T08:41:37.046Z,14120.00
2023-04-12T08:42:35.075Z,12224.00
2023-04-12T08:43:35.052Z,10916.00
2023-04-12T08:44:34.999Z,10224.00
2023-04-12T08:45:34.967Z,10144.00
2023-04-12T08:46:35.116Z,10340.00
2023-04-12T08:47:35.029Z,10752.00
2023-04-12T08:48:35.130Z,11616.00
2023-04-12T08:49:34.922Z,12308.00
2023-04-12T08:50:34.929Z,12064.00
2023-04-12T08:51:35.014Z,11776.00
2023-04-12T08:52:34.935Z,12196.00
2023-04-12T08:53:34.894Z,13180.00
2023-04-12T08:54:34.865Z,14228.00
2023-04-12T08:55:34.876Z,15396.00
2023-04-12T08:56:34.876Z,16240.00
2023-04-12T08:57:34.814Z,16828.00
2023-04-12T08:58:35.002Z,17760.00
2023-04-12T08:59:34.796Z,19392.00
2023-04-12T09:00:34.805Z,21152.00
2023-04-12T09:01:34.783Z,23296.00
2023-04-12T09:02:35.025Z,25248.00
2023-04-12T09:03:34.943Z,26272.00
2023-04-12T09:04:34.898Z,26496.00
2023-04-12T09:05:34.743Z,25376.00
2023-04-12T09:06:34.718Z,24096.00
2023-04-12T09:07:34.856Z,23104.00
2023-04-12T09:08:34.713Z,21472.00
2023-04-12T09:09:34.775Z,19488.00
2023-04-12T09:10:34.704Z,18656.00
2023-04-12T09:11:34.685Z,19392.00
2023-04-12T09:12:34.654Z,20576.00
2023-04-12T09:13:34.869Z,21472.00
2023-04-12T09:14:34.644Z,23040.00
2023-04-12T09:15:34.627Z,24704.00
2023-04-12T09:16:34.634Z,24256.00
2023-04-12T09:17:34.657Z,23200.00
2023-04-12T09:18:34.593Z,23904.00
2023-04-12T09:19:34.652Z,24320.00
2023-04-12T09:20:34.584Z,23488.00
2023-04-12T09:21:34.659Z,21664.00
2023-04-12T09:22:34.568Z,21568.00
2023-04-12T09:23:34.546Z,22944.00
2023-04-12T09:24:34.515Z,23520.00
2023-04-12T09:25:34.537Z,24384.00
2023-04-12T09:26:34.495Z,26304.00
2023-04-12T09:27:34.489Z,27328.00
2023-04-12T09:28:34.526Z,25792.00
2023-04-12T09:29:34.491Z,22944.00
2023-04-12T09:30:34.449Z,19712.00
2023-04-12T09:31:34.490Z,18400.00
2023-04-12T09:32:34.476Z,18016.00
2023-04-12T09:33:34.431Z,14468.00
2023-04-12T09:34:34.424Z,11528.00
2023-04-12T09:35:34.430Z,10644.00
2023-04-12T09:36:34.386Z,10440.00
2023-04-12T09:37:34.373Z,10660.00
2023-04-12T09:38:34.421Z,10608.00
2023-04-12T09:39:34.502Z,9736.00
2023-04-12T09:40:34.353Z,8784.00
2023-04-12T09:41:34.335Z,9600.00
2023-04-12T09:42:34.931Z,10352.00
2023-04-12T09:43:34.319Z,8928.00
2023-04-12T09:44:34.379Z,8860.00
2023-04-12T09:45:34.305Z,9388.00
2023-04-12T09:46:34.327Z,8880.00
2023-04-12T09:47:34.270Z,9048.00
2023-04-12T09:48:34.290Z,10172.00
2023-04-12T09:49:34.253Z,9924.00
2023-04-12T09:50:34.260Z,9288.00
2023-04-12T09:51:34.272Z,8492.00
2023-04-12T09:52:34.218Z,8876.00
2023-04-12T09:53:34.212Z,9460.00
2023-04-12T09:54:34.175Z,9184.00
2023-04-12T09:55:34.181Z,9856.00
2023-04-12T09:56:34.240Z,10148.00
2023-04-12T09:57:34.147Z,11780.00
2023-04-12T09:58:34.184Z,12272.00
2023-04-12T09:59:34.133Z,13400.00
2023-04-12T10:00:34.354Z,16940.00
2023-04-12T10:01:34.187Z,15192.00
2023-04-12T10:02:34.266Z,14920.00
2023-04-12T10:03:34.289Z,14920.00
2023-04-12T10:04:34.279Z,14560.00
2023-04-12T10:05:34.105Z,18880.00
2023-04-12T10:06:34.105Z,20704.00
2023-04-12T10:07:34.059Z,21120.00
2023-04-12T10:08:34.034Z,22208.00
2023-04-12T10:09:34.028Z,21952.00
2023-04-12T10:10:34.027Z,22496.00
2023-04-12T10:11:34.125Z,24672.00
2023-04-12T10:12:34.002Z,26336.00
2023-04-12T10:13:34.016Z,38304.00
2023-04-12T10:14:33.978Z,47456.00
2023-04-12T10:15:33.954Z,45248.00
2023-04-12T10:16:34.059Z,40288.00
2023-04-12T10:17:33.972Z,34112.00
2023-04-12T10:18:33.947Z,32096.00
2023-04-12T10:19:34.006Z,32320.00
2023-04-12T10:20:33.904Z,38080.00
2023-04-12T10:21:33.950Z,45568.00
2023-04-12T10:22:33.905Z,46368.00
2023-04-12T10:23:33.895Z,97600.00
2023-04-12T10:24:33.851Z,91360.00
2023-04-12T10:25:33.885Z,106976.00
2023-04-12T10:26:33.846Z,101504.00
2023-04-12T10:27:33.814Z,147456.00
2023-04-12T10:28:33.832Z,163488.00
2023-04-12T10:29:33.804Z,160352.00
2023-04-12T10:30:33.805Z,164224.00
2023-04-12T10:31:33.809Z,107360.00
2023-04-12T10:32:35.423Z,118944.00
2023-04-12T10:33:33.766Z,85888.00
2023-04-12T10:34:33.755Z,85984.00
2023-04-12T10:35:33.755Z,160192.00
2023-04-12T10:36:33.749Z,158016.00
2023-04-12T10:37:33.741Z,71360.00
2023-04-12T10:38:35.970Z,58752.00
2023-04-12T10:39:33.708Z,59488.00
2023-04-12T10:40:33.709Z,66432.00
2023-04-12T10:41:33.676Z,168384.00
2023-04-12T10:42:33.688Z,109088.00
2023-04-12T10:43:33.680Z,67008.00
2023-04-12T10:44:33.718Z,180512.00
2023-04-12T10:45:33.628Z,61248.00
2023-04-12T10:46:33.661Z,185696.00
2023-04-12T10:47:33.632Z,173568.00
2023-04-12T10:48:33.677Z,66080.00
2023-04-12T10:49:33.607Z,31040.00
2023-04-12T10:50:33.615Z,23840.00
2023-04-12T10:51:33.556Z,18400.00
2023-04-12T10:52:33.560Z,11872.00
2023-04-12T10:53:33.555Z,6544.00
2023-04-12T10:54:33.544Z,4124.00
2023-04-12T10:55:33.541Z,3900.00
2023-04-12T10:56:33.570Z,5056.00
2023-04-12T10:57:33.556Z,6772.00
2023-04-12T10:58:33.534Z,8100.00
2023-04-12T10:59:47.027Z,10204.00
2023-04-12T11:00:34.548Z,13160.00
2023-04-12T11:01:35.194Z,14288.00
2023-04-12T11:02:33.640Z,13288.00
2023-04-12T11:03:33.546Z,12240.00
2023-04-12T11:04:33.530Z,10200.00
2023-04-12T11:05:33.562Z,9820.00
2023-04-12T11:06:33.406Z,10496.00
2023-04-12T11:07:33.449Z,10084.00
2023-04-12T11:08:33.468Z,9312.00
2023-04-12T11:09:33.377Z,8324.00
2023-04-12T11:10:33.610Z,8740.00
2023-04-12T11:11:33.336Z,9472.00
2023-04-12T11:12:33.549Z,8744.00
2023-04-12T11:13:33.469Z,7268.00
2023-04-12T11:14:33.326Z,6136.00
2023-04-12T11:15:33.325Z,5400.00
2023-04-12T11:16:33.354Z,5032.00
2023-04-12T11:17:34.942Z,5316.00
2023-04-12T11:18:33.361Z,6604.00
2023-04-12T11:19:33.258Z,9104.00
2023-04-12T11:20:33.245Z,12272.00
2023-04-12T11:21:33.257Z,15404.00
2023-04-12T11:22:33.303Z,18976.00
2023-04-12T11:23:33.249Z,26208.00
2023-04-12T11:24:33.195Z,49312.00
2023-04-12T11:25:33.204Z,60992.00
2023-04-12T11:26:33.176Z,145632.00
2023-04-12T11:27:33.166Z,162208.00
2023-04-12T11:28:35.271Z,158848.00
2023-04-12T11:29:33.135Z,93984.00
2023-04-12T11:30:33.120Z,145824.00
2023-04-12T11:31:33.198Z,139424.00
2023-04-12T11:32:33.149Z,153472.00
2023-04-12T11:33:33.105Z,67552.00
2023-04-12T11:34:33.086Z,56992.00
2023-04-12T11:35:33.071Z,50720.00
2023-04-12T11:36:33.063Z,63040.00
2023-04-12T11:37:33.057Z,76000.00
2023-04-12T11:38:33.056Z,117952.00
2023-04-12T11:39:33.443Z,64320.00
2023-04-12T11:40:33.118Z,54720.00
2023-04-12T11:41:32.999Z,49408.00
2023-04-12T11:42:33.010Z,44576.00
2023-04-12T11:43:33.202Z,44320.00
2023-04-12T11:44:47.940Z,43680.00
2023-04-12T11:45:33.964Z,41792.00
2023-04-12T11:46:33.014Z,38464.00
2023-04-12T11:47:32.996Z,34976.00
2023-04-12T11:48:32.931Z,32384.00
2023-04-12T11:49:32.933Z,31456.00
2023-04-12T11:50:32.923Z,35104.00
2023-04-12T11:51:32.911Z,43584.00
2023-04-12T11:52:32.902Z,35424.00
2023-04-12T11:53:32.918Z,29184.00
2023-04-12T11:54:32.861Z,25600.00
2023-04-12T11:55:32.855Z,23008.00
2023-04-12T11:56:32.890Z,21120.00
2023-04-12T11:57:32.868Z,20544.00
2023-04-12T11:58:32.822Z,19776.00
2023-04-12T11:59:32.811Z,19392.00
2023-04-12T12:00:32.795Z,20608.00
2023-04-12T12:01:32.824Z,21792.00
2023-04-12T12:02:38.372Z,22240.00
2023-04-12T12:03:33.906Z,23104.00
2023-04-12T12:04:33.130Z,25920.00
2023-04-12T12:05:33.243Z,29920.00
2023-04-12T12:06:32.872Z,35520.00
2023-04-12T12:07:33.097Z,38080.00
2023-04-12T12:08:32.787Z,36032.00
2023-04-12T12:09:32.713Z,32352.00
2023-04-12T12:10:46.430Z,28512.00
2023-04-12T12:11:33.675Z,29472.00
2023-04-12T12:12:32.663Z,29696.00
2023-04-12T12:13:32.758Z,32384.00
2023-04-12T12:14:32.649Z,39456.00
2023-04-12T12:15:32.649Z,99392.00
2023-04-12T12:16:32.695Z,53696.00
2023-04-12T12:17:32.653Z,62944.00
2023-04-12T12:18:32.610Z,57024.00
2023-04-12T12:19:32.687Z,50304.00
2023-04-12T12:20:32.593Z,54816.00
2023-04-12T12:21:32.612Z,57440.00
2023-04-12T12:22:32.556Z,54176.00
2023-04-12T12:23:32.571Z,42112.00
2023-04-12T12:24:32.538Z,38304.00
2023-04-12T12:25:32.556Z,36576.00